createdAt,value
2019-02-06T00:03:24.912Z,56.77
2019-02-06T00:08:30.003Z,55.67
2019-02-06T00:13:35.276Z,53.33
2019-02-06T00:18:40.361Z,53.73
2019-02-06T00:23:45.464Z,56.27
2019-02-06T00:28:50.893Z,52.90
2019-02-06T00:33:55.946Z,49.50
2019-02-06T00:39:00.997Z,50.13
2019-02-06T00:44:08.064Z,53.30
2019-02-06T00:49:13.262Z,49.70
2019-02-06T00:54:20.546Z,49.30
2019-02-06T00:59:25.823Z,50.00
2019-02-06T01:04:30.841Z,50.23
2019-02-06T01:09:35.937Z,53.73
2019-02-06T01:14:41.075Z,53.20
2019-02-06T01:19:46.215Z,47.27
2019-02-06T01:24:51.491Z,52.50
2019-02-06T01:29:56.578Z,58.07
2019-02-06T01:35:01.699Z,46.83
2019-02-06T01:40:08.953Z,56.70
2019-02-06T01:45:15.638Z,54.20
2019-02-06T01:50:20.783Z,49.60
2019-02-06T01:55:26.152Z,54.17
2019-02-06T02:00:31.829Z,51.30
2019-02-06T02:05:37.972Z,49.57
2019-02-06T02:10:43.213Z,53.77
2019-02-06T02:15:48.365Z,55.00
2019-02-06T02:20:54.611Z,55.57
2019-02-06T02:25:59.672Z,57.20
2019-02-06T02:31:04.803Z,57.30
2019-02-06T02:36:15.637Z,57.23
2019-02-06T02:41:17.805Z,62.93
2019-02-06T02:46:22.772Z,56.80
2019-02-06T02:51:28.487Z,58.40
2019-02-06T02:56:33.619Z,58.77
2019-02-06T03:01:50.915Z,56.37
2019-02-06T03:07:05.358Z,58.40
2019-02-06T03:12:10.799Z,60.30
2019-02-06T03:17:15.749Z,58.50
2019-02-06T03:22:22.003Z,59.93
2019-02-06T03:27:27.687Z,62.17
2019-02-06T03:32:32.801Z,60.77
2019-02-06T03:37:38.227Z,64.60
2019-02-06T03:42:43.246Z,67.80
2019-02-06T03:47:48.615Z,64.17
2019-02-06T03:52:56.833Z,59.13
2019-02-06T03:58:01.996Z,61.90
2019-02-06T04:03:07.127Z,62.10
2019-02-06T04:08:12.334Z,67.73
2019-02-06T04:13:17.676Z,62.43
2019-02-06T04:18:23.050Z,63.80
2019-02-06T04:23:28.393Z,67.53
2019-02-06T04:28:33.403Z,61.13
2019-02-06T04:33:39.462Z,64.40
2019-02-06T04:38:44.517Z,66.57
2019-02-06T04:43:49.652Z,67.53
2019-02-06T04:48:54.942Z,67.23
2019-02-06T04:54:01.002Z,69.13
2019-02-06T04:59:06.062Z,67.03
2019-02-06T05:04:12.772Z,67.60
2019-02-06T05:09:20.330Z,67.27
2019-02-06T05:14:25.459Z,65.53
2019-02-06T05:19:30.775Z,68.40
2019-02-06T05:24:37.438Z,69.27
2019-02-06T05:29:45.138Z,69.60
2019-02-06T05:34:50.403Z,69.67
2019-02-06T05:39:55.704Z,69.30
2019-02-06T05:45:00.978Z,67.77
2019-02-06T05:50:13.522Z,68.73
2019-02-06T05:55:19.885Z,66.37
2019-02-06T06:00:31.376Z,72.03
2019-02-06T06:05:36.558Z,72.20
2019-02-06T06:10:42.067Z,70.53
2019-02-06T06:15:47.412Z,68.73
2019-02-06T06:20:54.655Z,66.97
2019-02-06T06:25:59.715Z,63.80
2019-02-06T06:31:04.930Z,63.63
2019-02-06T06:36:10.532Z,70.23
2019-02-06T06:41:15.971Z,72.97
2019-02-06T06:46:21.469Z,63.63
2019-02-06T06:51:26.567Z,67.97
2019-02-06T06:56:31.848Z,67.30
2019-02-06T07:01:37.416Z,64.77
2019-02-06T07:06:42.596Z,57.83
2019-02-06T07:11:48.722Z,61.73
2019-02-06T07:16:53.982Z,62.37
2019-02-06T07:21:59.588Z,59.40
2019-02-06T07:27:05.780Z,65.00
2019-02-06T07:32:16.354Z,58.93
2019-02-06T07:37:22.054Z,59.90
2019-02-06T07:42:27.496Z,56.87
2019-02-06T07:47:41.286Z,58.37
2019-02-06T07:52:52.716Z,58.00
2019-02-06T07:58:05.050Z,54.20
2019-02-06T08:03:22.554Z,52.73
2019-02-06T08:08:36.055Z,51.20
2019-02-06T08:13:38.573Z,46.77
2019-02-06T08:18:43.806Z,50.43
2019-02-06T08:23:52.477Z,46.67
2019-02-06T08:29:01.282Z,45.43
2019-02-06T08:34:12.060Z,43.40
2019-02-06T08:39:20.356Z,47.83
2019-02-06T08:44:26.280Z,49.93
2019-02-06T08:49:31.462Z,47.60
2019-02-06T08:54:45.168Z,43.77
2019-02-06T08:59:52.277Z,40.77
2019-02-06T09:04:58.877Z,43.13
2019-02-06T09:10:08.099Z,44.63
2019-02-06T09:15:17.158Z,48.87
2019-02-06T09:20:24.520Z,40.47
2019-02-06T09:25:40.806Z,39.67
2019-02-06T09:30:46.186Z,43.93
2019-02-06T09:35:52.744Z,50.77
2019-02-06T09:41:04.145Z,46.43
2019-02-06T09:46:17.795Z,39.87
2019-02-06T09:51:46.137Z,38.67
2019-02-06T09:57:09.508Z,43.50
2019-02-06T10:02:18.429Z,42.57
2019-02-06T10:07:24.178Z,42.53
2019-02-06T10:12:35.371Z,44.33
2019-02-06T10:17:40.871Z,46.47
2019-02-06T10:22:52.945Z,43.10
2019-02-06T10:27:58.810Z,43.63
2019-02-06T10:33:19.267Z,43.27
2019-02-06T10:38:44.052Z,42.30
2019-02-06T10:43:53.842Z,37.90
2019-02-06T10:49:04.927Z,40.87
2019-02-06T10:54:14.635Z,39.63
2019-02-06T10:59:23.773Z,39.03
2019-02-06T11:04:31.188Z,40.87
2019-02-06T11:09:45.993Z,37.87
2019-02-06T11:14:46.502Z,38.53
2019-02-06T11:19:51.833Z,35.77
2019-02-06T11:25:04.951Z,39.60
2019-02-06T11:30:13.815Z,40.47
2019-02-06T11:35:30.968Z,40.23
2019-02-06T11:40:58.087Z,37.83
2019-02-06T11:46:11.035Z,37.78
2019-02-06T11:51:16.968Z,35.53
2019-02-06T11:56:22.775Z,35.90
2019-02-06T12:01:32.298Z,34.47
2019-02-06T12:06:37.546Z,33.90
2019-02-06T12:11:48.416Z,32.60
2019-02-06T12:16:55.734Z,33.33
2019-02-06T12:22:01.166Z,33.67
2019-02-06T12:27:07.125Z,34.73
2019-02-06T12:32:24.167Z,38.20
2019-02-06T12:37:32.230Z,39.20
2019-02-06T12:42:38.402Z,38.77
2019-02-06T12:47:44.496Z,32.70
2019-02-06T12:52:50.092Z,31.57
2019-02-06T12:57:57.024Z,33.57
2019-02-06T13:03:02.644Z,33.70
2019-02-06T13:08:09.337Z,34.90
2019-02-06T13:13:14.563Z,33.00
2019-02-06T13:18:24.878Z,32.77
2019-02-06T13:23:31.110Z,31.65
2019-02-06T13:28:36.316Z,30.37
2019-02-06T13:33:44.364Z,33.13
2019-02-06T14:41:50.956Z,25.73
2019-02-06T14:47:28.660Z,26.53
2019-02-06T14:53:19.914Z,30.23
2019-02-06T14:59:07.525Z,32.97
2019-02-06T15:04:36.076Z,33.33
2019-02-06T15:10:11.185Z,33.00
2019-02-06T15:15:30.299Z,34.13
2019-02-06T15:20:57.883Z,37.73
2019-02-06T15:26:49.291Z,30.37
2019-02-06T15:32:55.698Z,33.10
2019-02-06T15:38:44.985Z,32.63
2019-02-06T15:44:06.336Z,32.17
2019-02-06T15:49:46.574Z,34.27
2019-02-06T15:55:41.162Z,30.00
2019-02-06T16:01:42.478Z,33.77
2019-02-06T16:07:20.881Z,29.27
2019-02-06T16:12:49.655Z,30.20
2019-02-06T16:18:09.393Z,33.13
2019-02-06T16:23:59.058Z,31.93
2019-02-06T16:30:00.317Z,30.07
2019-02-06T16:35:45.474Z,32.90
2019-02-06T16:41:20.324Z,30.70
2019-02-06T16:47:23.242Z,38.13
2019-02-06T16:53:10.390Z,39.47
2019-02-06T16:58:45.974Z,37.63
2019-02-06T17:04:16.231Z,35.03
2019-02-06T17:10:15.995Z,39.17
2019-02-06T17:16:02.063Z,36.07
2019-02-06T17:21:52.238Z,39.57
2019-02-06T17:27:27.533Z,37.73
2019-02-06T17:33:13.110Z,35.87
2019-02-06T17:39:09.372Z,34.37
2019-02-06T17:44:57.850Z,37.63
2019-02-06T17:50:51.004Z,36.63
2019-02-06T17:56:05.642Z,37.63
2019-02-06T18:01:40.540Z,33.47
2019-02-06T18:06:50.232Z,37.10
2019-02-06T18:12:14.158Z,36.83
2019-02-06T18:17:24.487Z,43.80
2019-02-06T18:22:46.404Z,58.30
2019-02-06T18:27:55.113Z,31.03
2019-02-06T18:33:11.560Z,34.17
2019-02-06T18:38:25.050Z,36.53
2019-02-06T18:43:46.642Z,34.73
2019-02-06T18:48:56.079Z,40.53
2019-02-06T18:54:02.263Z,38.90
2019-02-06T18:59:17.822Z,34.10
2019-02-06T19:05:16.069Z,35.17
2019-02-06T19:10:23.521Z,35.90
2019-02-06T19:15:58.147Z,39.10
2019-02-06T19:21:19.278Z,35.23
2019-02-06T19:26:40.097Z,37.70
2019-02-06T19:31:45.952Z,37.03
2019-02-06T19:37:16.148Z,42.57
2019-02-06T19:42:25.350Z,37.70
2019-02-06T19:47:41.700Z,39.73
2019-02-06T19:53:04.050Z,37.17
2019-02-06T19:58:19.030Z,36.40
2019-02-06T20:03:26.437Z,37.03
2019-02-06T20:08:49.214Z,37.97
2019-02-06T20:14:20.397Z,37.53
2019-02-06T20:19:25.763Z,35.80
2019-02-06T20:24:33.128Z,40.67
2019-02-06T20:29:51.439Z,37.63
2019-02-06T20:35:07.120Z,39.43
2019-02-06T20:40:19.384Z,39.13
2019-02-06T20:45:42.204Z,38.23
2019-02-06T20:50:45.540Z,41.70
2019-02-06T20:55:50.840Z,35.00
2019-02-06T21:01:00.948Z,36.97
2019-02-06T21:06:08.251Z,40.97
2019-02-06T21:11:13.915Z,43.03
2019-02-06T21:16:30.073Z,42.93
2019-02-06T21:21:37.286Z,38.03
2019-02-06T21:26:48.013Z,37.40
2019-02-06T21:31:53.834Z,39.70
2019-02-06T21:36:59.279Z,48.57
2019-02-06T21:42:04.679Z,48.77
2019-02-06T21:47:09.846Z,52.83
2019-02-06T21:52:18.096Z,46.77
2019-02-06T21:57:27.777Z,47.33
2019-02-06T22:02:34.063Z,47.57
2019-02-06T22:07:41.466Z,45.00
2019-02-06T22:12:47.791Z,40.20
2019-02-06T22:17:54.041Z,49.57
2019-02-06T22:23:00.610Z,46.00
2019-02-06T22:28:08.460Z,48.77
2019-02-06T22:33:14.298Z,47.37
2019-02-06T22:38:19.471Z,46.13
2019-02-06T22:43:25.180Z,50.93
2019-02-06T22:48:30.273Z,45.40
2019-02-06T22:53:41.475Z,47.17
2019-02-06T22:58:46.669Z,44.87
2019-02-06T23:03:56.586Z,49.10
2019-02-06T23:09:06.451Z,48.40
2019-02-06T23:14:17.535Z,45.73
2019-02-06T23:19:19.240Z,42.37
2019-02-06T23:24:27.606Z,45.00
2019-02-06T23:29:34.862Z,46.70
2019-02-06T23:34:42.626Z,43.17
2019-02-06T23:39:51.444Z,40.90
2019-02-06T23:44:57.090Z,42.33
2019-02-06T23:50:02.134Z,44.83
2019-02-06T23:55:07.510Z,48.23
